sensor_id;sensor_type;location;lat;lon;timestamp;P1;durP1;ratioP1;P2;durP2;ratioP2
76393;SDS011;65216;51.090;-115.352;2023-04-03T00:01:20;18.30;;;2.00;;
76393;SDS011;65216;51.090;-115.352;2023-04-03T00:03:47;22.80;;;2.10;;
76393;SDS011;65216;51.090;-115.352;2023-04-03T00:06:15;19.10;;;2.30;;
76393;SDS011;65216;51.090;-115.352;2023-04-03T00:08:42;11.60;;;1.80;;
76393;SDS011;65216;51.090;-115.352;2023-04-03T00:11:10;19.80;;;2.10;;
76393;SDS011;65216;51.090;-115.352;2023-04-03T00:13:41;21.30;;;2.30;;
76393;SDS011;65216;51.090;-115.352;2023-04-03T00:16:12;22.10;;;2.50;;
76393;SDS011;65216;51.090;-115.352;2023-04-03T00:18:41;24.40;;;2.30;;
76393;SDS011;65216;51.090;-115.352;2023-04-03T00:21:12;23.00;;;2.20;;
76393;SDS011;65216;51.090;-115.352;2023-04-03T00:24:00;19.60;;;2.40;;
76393;SDS011;65216;51.090;-115.352;2023-04-03T00:26:33;21.50;;;2.10;;
76393;SDS011;65216;51.090;-115.352;2023-04-03T00:29:01;18.20;;;2.20;;
76393;SDS011;65216;51.090;-115.352;2023-04-03T00:31:28;15.60;;;1.90;;
76393;SDS011;65216;51.090;-115.352;2023-04-03T00:33:55;20.30;;;2.40;;
76393;SDS011;65216;51.090;-115.352;2023-04-03T00:36:28;13.10;;;2.30;;
76393;SDS011;65216;51.090;-115.352;2023-04-03T00:38:55;19.20;;;2.30;;
76393;SDS011;65216;51.090;-115.352;2023-04-03T00:41:22;27.00;;;2.60;;
76393;SDS011;65216;51.090;-115.352;2023-04-03T00:43:50;20.70;;;2.70;;
76393;SDS011;65216;51.090;-115.352;2023-04-03T00:46:17;20.20;;;2.50;;
76393;SDS011;65216;51.090;-115.352;2023-04-03T00:48:46;16.30;;;2.00;;
76393;SDS011;65216;51.090;-115.352;2023-04-03T00:51:22;29.40;;;2.70;;
76393;SDS011;65216;51.090;-115.352;2023-04-03T00:53:55;21.80;;;2.20;;
76393;SDS011;65216;51.090;-115.352;2023-04-03T00:56:30;16.10;;;2.50;;
76393;SDS011;65216;51.090;-115.352;2023-04-03T00:59:11;16.90;;;2.20;;
76393;SDS011;65216;51.090;-115.352;2023-04-03T01:01:42;20.00;;;2.30;;
76393;SDS011;65216;51.090;-115.352;2023-04-03T01:07:22;24.30;;;2.20;;
76393;SDS011;65216;51.090;-115.352;2023-04-03T01:09:59;18.10;;;1.90;;
76393;SDS011;65216;51.090;-115.352;2023-04-03T01:12:38;19.80;;;2.30;;
76393;SDS011;65216;51.090;-115.352;2023-04-03T01:15:15;18.70;;;2.50;;
76393;SDS011;65216;51.090;-115.352;2023-04-03T01:17:50;23.30;;;2.50;;
76393;SDS011;65216;51.090;-115.352;2023-04-03T01:25:54;15.30;;;2.30;;
76393;SDS011;65216;51.090;-115.352;2023-04-03T01:28:28;16.10;;;2.10;;
76393;SDS011;65216;51.090;-115.352;2023-04-03T01:33:47;16.80;;;2.30;;
76393;SDS011;65216;51.090;-115.352;2023-04-03T01:36:26;26.10;;;2.00;;
76393;SDS011;65216;51.090;-115.352;2023-04-03T01:38:56;18.70;;;2.30;;
76393;SDS011;65216;51.090;-115.352;2023-04-03T01:41:26;14.70;;;1.90;;
76393;SDS011;65216;51.090;-115.352;2023-04-03T01:43:54;20.70;;;2.40;;
76393;SDS011;65216;51.090;-115.352;2023-04-03T01:46:22;14.60;;;1.60;;
76393;SDS011;65216;51.090;-115.352;2023-04-03T01:48:49;13.70;;;1.70;;
76393;SDS011;65216;51.090;-115.352;2023-04-03T01:51:16;21.20;;;2.40;;
76393;SDS011;65216;51.090;-115.352;2023-04-03T01:53:43;16.50;;;2.10;;
76393;SDS011;65216;51.090;-115.352;2023-04-03T01:56:11;18.10;;;2.00;;
76393;SDS011;65216;51.090;-115.352;2023-04-03T01:58:38;18.50;;;2.00;;
76393;SDS011;65216;51.090;-115.352;2023-04-03T02:01:05;23.60;;;2.20;;
76393;SDS011;65216;51.090;-115.352;2023-04-03T02:03:33;14.40;;;2.00;;
76393;SDS011;65216;51.090;-115.352;2023-04-03T02:06:03;17.50;;;1.90;;
76393;SDS011;65216;51.090;-115.352;2023-04-03T02:08:31;17.80;;;1.90;;
76393;SDS011;65216;51.090;-115.352;2023-04-03T02:10:58;14.70;;;1.90;;
76393;SDS011;65216;51.090;-115.352;2023-04-03T02:13:25;19.20;;;2.10;;
76393;SDS011;65216;51.090;-115.352;2023-04-03T02:15:52;23.90;;;2.60;;
76393;SDS011;65216;51.090;-115.352;2023-04-03T02:18:20;17.20;;;2.10;;
76393;SDS011;65216;51.090;-115.352;2023-04-03T02:20:47;19.30;;;2.20;;
76393;SDS011;65216;51.090;-115.352;2023-04-03T02:23:17;17.50;;;2.40;;
76393;SDS011;65216;51.090;-115.352;2023-04-03T02:25:46;18.10;;;1.90;;
76393;SDS011;65216;51.090;-115.352;2023-04-03T02:28:16;15.30;;;2.00;;
76393;SDS011;65216;51.090;-115.352;2023-04-03T02:30:46;22.80;;;2.30;;
76393;SDS011;65216;51.090;-115.352;2023-04-03T02:33:19;15.70;;;2.10;;
76393;SDS011;65216;51.090;-115.352;2023-04-03T02:35:48;13.30;;;1.80;;
76393;SDS011;65216;51.090;-115.352;2023-04-03T02:38:19;17.40;;;2.30;;
76393;SDS011;65216;51.090;-115.352;2023-04-03T02:40:47;15.80;;;2.20;;
76393;SDS011;65216;51.090;-115.352;2023-04-03T02:43:14;21.50;;;2.40;;
76393;SDS011;65216;51.090;-115.352;2023-04-03T02:45:44;18.40;;;2.00;;
76393;SDS011;65216;51.090;-115.352;2023-04-03T02:48:14;16.60;;;2.20;;
76393;SDS011;65216;51.090;-115.352;2023-04-03T02:50:42;15.50;;;2.00;;
76393;SDS011;65216;51.090;-115.352;2023-04-03T02:53:09;14.70;;;1.80;;
76393;SDS011;65216;51.090;-115.352;2023-04-03T02:55:37;16.50;;;2.10;;
76393;SDS011;65216;51.090;-115.352;2023-04-03T02:58:04;11.90;;;2.00;;
76393;SDS011;65216;51.090;-115.352;2023-04-03T03:00:31;15.90;;;1.90;;
76393;SDS011;65216;51.090;-115.352;2023-04-03T03:02:59;12.80;;;1.80;;
76393;SDS011;65216;51.090;-115.352;2023-04-03T03:05:32;12.60;;;2.00;;
76393;SDS011;65216;51.090;-115.352;2023-04-03T03:07:59;11.00;;;1.80;;
76393;SDS011;65216;51.090;-115.352;2023-04-03T03:10:27;16.00;;;1.80;;
76393;SDS011;65216;51.090;-115.352;2023-04-03T03:12:54;13.60;;;1.70;;
76393;SDS011;65216;51.090;-115.352;2023-04-03T03:15:21;8.10;;;1.80;;
76393;SDS011;65216;51.090;-115.352;2023-04-03T03:17:48;7.70;;;1.70;;
76393;SDS011;65216;51.090;-115.352;2023-04-03T03:20:18;4.70;;;1.60;;
76393;SDS011;65216;51.090;-115.352;2023-04-03T03:22:45;11.80;;;1.40;;
76393;SDS011;65216;51.090;-115.352;2023-04-03T03:25:13;9.10;;;1.50;;
76393;SDS011;65216;51.090;-115.352;2023-04-03T03:27:43;7.80;;;1.40;;
76393;SDS011;65216;51.090;-115.352;2023-04-03T03:30:13;7.20;;;1.30;;
76393;SDS011;65216;51.090;-115.352;2023-04-03T03:32:43;6.90;;;1.30;;
76393;SDS011;65216;51.090;-115.352;2023-04-03T03:35:13;5.10;;;1.20;;
76393;SDS011;65216;51.090;-115.352;2023-04-03T03:37:40;7.00;;;1.20;;
76393;SDS011;65216;51.090;-115.352;2023-04-03T03:40:07;4.00;;;1.30;;
76393;SDS011;65216;51.090;-115.352;2023-04-03T03:42:35;6.10;;;1.40;;
76393;SDS011;65216;51.090;-115.352;2023-04-03T03:45:05;4.60;;;1.10;;
76393;SDS011;65216;51.090;-115.352;2023-04-03T03:47:33;5.90;;;1.10;;
76393;SDS011;65216;51.090;-115.352;2023-04-03T03:50:00;5.00;;;1.20;;
76393;SDS011;65216;51.090;-115.352;2023-04-03T03:52:30;4.60;;;1.60;;
76393;SDS011;65216;51.090;-115.352;2023-04-03T03:54:58;5.30;;;1.40;;
76393;SDS011;65216;51.090;-115.352;2023-04-03T03:57:30;4.30;;;1.30;;
76393;SDS011;65216;51.090;-115.352;2023-04-03T03:59:58;4.00;;;1.30;;
76393;SDS011;65216;51.090;-115.352;2023-04-03T04:02:28;6.70;;;1.30;;
76393;SDS011;65216;51.090;-115.352;2023-04-03T04:04:55;5.40;;;1.40;;
76393;SDS011;65216;51.090;-115.352;2023-04-03T04:07:22;5.40;;;1.20;;
76393;SDS011;65216;51.090;-115.352;2023-04-03T04:09:49;6.50;;;1.50;;
76393;SDS011;65216;51.090;-115.352;2023-04-03T04:12:16;5.30;;;1.30;;
76393;SDS011;65216;51.090;-115.352;2023-04-03T04:14:46;4.10;;;1.40;;
76393;SDS011;65216;51.090;-115.352;2023-04-03T04:17:13;7.00;;;1.60;;
76393;SDS011;65216;51.090;-115.352;2023-04-03T04:19:41;8.60;;;1.50;;
76393;SDS011;65216;51.090;-115.352;2023-04-03T04:22:08;7.60;;;1.40;;
76393;SDS011;65216;51.090;-115.352;2023-04-03T04:24:35;6.20;;;1.30;;
76393;SDS011;65216;51.090;-115.352;2023-04-03T04:27:07;3.30;;;1.30;;
76393;SDS011;65216;51.090;-115.352;2023-04-03T04:29:34;5.30;;;1.30;;
76393;SDS011;65216;51.090;-115.352;2023-04-03T04:32:03;8.30;;;1.40;;
76393;SDS011;65216;51.090;-115.352;2023-04-03T04:34:31;4.90;;;1.40;;
76393;SDS011;65216;51.090;-115.352;2023-04-03T04:36:58;3.60;;;1.40;;
76393;SDS011;65216;51.090;-115.352;2023-04-03T04:39:25;3.50;;;1.10;;
76393;SDS011;65216;51.090;-115.352;2023-04-03T04:41:55;5.70;;;1.30;;
76393;SDS011;65216;51.090;-115.352;2023-04-03T04:44:22;4.40;;;1.20;;
76393;SDS011;65216;51.090;-115.352;2023-04-03T04:46:49;2.70;;;0.80;;
76393;SDS011;65216;51.090;-115.352;2023-04-03T04:49:16;2.50;;;1.00;;
76393;SDS011;65216;51.090;-115.352;2023-04-03T04:51:44;5.00;;;1.20;;
76393;SDS011;65216;51.090;-115.352;2023-04-03T04:54:11;6.10;;;1.20;;
76393;SDS011;65216;51.090;-115.352;2023-04-03T04:56:41;4.50;;;1.20;;
76393;SDS011;65216;51.090;-115.352;2023-04-03T04:59:08;3.20;;;1.00;;
76393;SDS011;65216;51.090;-115.352;2023-04-03T05:01:36;6.10;;;1.10;;
76393;SDS011;65216;51.090;-115.352;2023-04-03T05:04:04;3.20;;;0.90;;
76393;SDS011;65216;51.090;-115.352;2023-04-03T05:06:31;2.90;;;1.00;;
76393;SDS011;65216;51.090;-115.352;2023-04-03T05:08:59;2.80;;;0.80;;
76393;SDS011;65216;51.090;-115.352;2023-04-03T05:11:26;3.20;;;0.90;;
76393;SDS011;65216;51.090;-115.352;2023-04-03T05:13:56;2.30;;;0.90;;
76393;SDS011;65216;51.090;-115.352;2023-04-03T05:16:23;2.50;;;0.90;;
76393;SDS011;65216;51.090;-115.352;2023-04-03T05:18:51;1.80;;;0.80;;
76393;SDS011;65216;51.090;-115.352;2023-04-03T05:21:18;2.00;;;0.80;;
76393;SDS011;65216;51.090;-115.352;2023-04-03T05:23:47;1.60;;;0.70;;
76393;SDS011;65216;51.090;-115.352;2023-04-03T05:26:14;2.60;;;0.90;;
76393;SDS011;65216;51.090;-115.352;2023-04-03T05:28:41;3.20;;;0.80;;
76393;SDS011;65216;51.090;-115.352;2023-04-03T05:31:09;2.60;;;0.90;;
76393;SDS011;65216;51.090;-115.352;2023-04-03T05:33:36;1.40;;;0.50;;
76393;SDS011;65216;51.090;-115.352;2023-04-03T05:36:04;1.40;;;0.60;;
76393;SDS011;65216;51.090;-115.352;2023-04-03T05:38:32;2.20;;;0.70;;
76393;SDS011;65216;51.090;-115.352;2023-04-03T05:41:00;2.80;;;0.80;;
76393;SDS011;65216;51.090;-115.352;2023-04-03T05:43:32;4.50;;;0.80;;
76393;SDS011;65216;51.090;-115.352;2023-04-03T05:46:00;1.70;;;0.80;;
76393;SDS011;65216;51.090;-115.352;2023-04-03T05:48:27;1.70;;;0.60;;
76393;SDS011;65216;51.090;-115.352;2023-04-03T05:50:54;2.60;;;0.70;;
76393;SDS011;65216;51.090;-115.352;2023-04-03T05:53:26;1.70;;;0.70;;
76393;SDS011;65216;51.090;-115.352;2023-04-03T05:55:57;2.50;;;0.80;;
76393;SDS011;65216;51.090;-115.352;2023-04-03T05:58:27;1.10;;;0.70;;
76393;SDS011;65216;51.090;-115.352;2023-04-03T06:00:54;2.80;;;0.70;;
76393;SDS011;65216;51.090;-115.352;2023-04-03T06:03:22;1.40;;;0.80;;
76393;SDS011;65216;51.090;-115.352;2023-04-03T06:05:49;1.00;;;0.60;;
76393;SDS011;65216;51.090;-115.352;2023-04-03T06:08:16;1.80;;;0.60;;
76393;SDS011;65216;51.090;-115.352;2023-04-03T06:10:46;1.60;;;0.80;;
76393;SDS011;65216;51.090;-115.352;2023-04-03T06:13:16;1.90;;;0.80;;
76393;SDS011;65216;51.090;-115.352;2023-04-03T06:15:43;2.40;;;0.80;;
76393;SDS011;65216;51.090;-115.352;2023-04-03T06:18:11;1.10;;;0.50;;
76393;SDS011;65216;51.090;-115.352;2023-04-03T06:20:40;1.40;;;0.70;;
76393;SDS011;65216;51.090;-115.352;2023-04-03T06:23:08;2.10;;;0.70;;
76393;SDS011;65216;51.090;-115.352;2023-04-03T06:25:36;1.70;;;0.80;;
76393;SDS011;65216;51.090;-115.352;2023-04-03T06:28:03;1.70;;;0.70;;
76393;SDS011;65216;51.090;-115.352;2023-04-03T06:30:31;1.20;;;0.70;;
76393;SDS011;65216;51.090;-115.352;2023-04-03T06:32:58;2.10;;;0.70;;
76393;SDS011;65216;51.090;-115.352;2023-04-03T06:35:25;1.00;;;0.50;;
76393;SDS011;65216;51.090;-115.352;2023-04-03T06:37:54;1.20;;;0.60;;
76393;SDS011;65216;51.090;-115.352;2023-04-03T06:40:24;1.40;;;0.70;;
76393;SDS011;65216;51.090;-115.352;2023-04-03T06:42:52;0.80;;;0.60;;
76393;SDS011;65216;51.090;-115.352;2023-04-03T06:45:19;1.80;;;0.70;;
76393;SDS011;65216;51.090;-115.352;2023-04-03T06:47:47;1.00;;;0.60;;
76393;SDS011;65216;51.090;-115.352;2023-04-03T06:50:14;1.80;;;0.70;;
76393;SDS011;65216;51.090;-115.352;2023-04-03T06:52:41;1.00;;;0.50;;
76393;SDS011;65216;51.090;-115.352;2023-04-03T06:55:14;0.40;;;0.40;;
76393;SDS011;65216;51.090;-115.352;2023-04-03T06:57:41;0.90;;;0.60;;
76393;SDS011;65216;51.090;-115.352;2023-04-03T07:00:08;1.20;;;0.60;;
76393;SDS011;65216;51.090;-115.352;2023-04-03T07:02:37;0.80;;;0.50;;
76393;SDS011;65216;51.090;-115.352;2023-04-03T07:05:05;0.80;;;0.50;;
76393;SDS011;65216;51.090;-115.352;2023-04-03T07:07:32;1.20;;;0.60;;
76393;SDS011;65216;51.090;-115.352;2023-04-03T07:10:00;1.30;;;0.60;;
76393;SDS011;65216;51.090;-115.352;2023-04-03T07:12:28;1.60;;;0.70;;
76393;SDS011;65216;51.090;-115.352;2023-04-03T07:14:55;1.10;;;0.40;;
76393;SDS011;65216;51.090;-115.352;2023-04-03T07:17:22;1.00;;;0.40;;
76393;SDS011;65216;51.090;-115.352;2023-04-03T07:19:51;1.00;;;0.60;;
76393;SDS011;65216;51.090;-115.352;2023-04-03T07:22:19;0.80;;;0.50;;
76393;SDS011;65216;51.090;-115.352;2023-04-03T07:24:46;0.80;;;0.60;;
76393;SDS011;65216;51.090;-115.352;2023-04-03T07:27:16;1.00;;;0.60;;
76393;SDS011;65216;51.090;-115.352;2023-04-03T07:29:44;0.90;;;0.50;;
76393;SDS011;65216;51.090;-115.352;2023-04-03T07:32:13;1.00;;;0.50;;
76393;SDS011;65216;51.090;-115.352;2023-04-03T07:34:41;1.50;;;0.60;;
76393;SDS011;65216;51.090;-115.352;2023-04-03T07:37:08;1.30;;;0.60;;
76393;SDS011;65216;51.090;-115.352;2023-04-03T07:39:35;1.10;;;0.50;;
76393;SDS011;65216;51.090;-115.352;2023-04-03T07:42:02;0.50;;;0.50;;
76393;SDS011;65216;51.090;-115.352;2023-04-03T07:44:29;0.70;;;0.40;;
76393;SDS011;65216;51.090;-115.352;2023-04-03T07:46:57;0.80;;;0.40;;
76393;SDS011;65216;51.090;-115.352;2023-04-03T07:49:27;1.50;;;0.60;;
76393;SDS011;65216;51.090;-115.352;2023-04-03T07:51:57;1.00;;;0.40;;
76393;SDS011;65216;51.090;-115.352;2023-04-03T07:54:24;1.80;;;0.70;;
76393;SDS011;65216;51.090;-115.352;2023-04-03T07:56:51;1.40;;;0.50;;
76393;SDS011;65216;51.090;-115.352;2023-04-03T07:59:19;1.10;;;0.60;;
76393;SDS011;65216;51.090;-115.352;2023-04-03T08:01:46;1.80;;;0.60;;
76393;SDS011;65216;51.090;-115.352;2023-04-03T08:04:13;1.30;;;0.60;;
76393;SDS011;65216;51.090;-115.352;2023-04-03T08:06:44;1.40;;;0.50;;
76393;SDS011;65216;51.090;-115.352;2023-04-03T08:09:11;1.00;;;0.50;;
76393;SDS011;65216;51.090;-115.352;2023-04-03T08:11:39;0.70;;;0.40;;
76393;SDS011;65216;51.090;-115.352;2023-04-03T08:14:10;1.30;;;0.60;;
76393;SDS011;65216;51.090;-115.352;2023-04-03T08:16:43;1.30;;;0.50;;
76393;SDS011;65216;51.090;-115.352;2023-04-03T08:19:11;0.90;;;0.40;;
76393;SDS011;65216;51.090;-115.352;2023-04-03T08:21:42;1.30;;;0.50;;
76393;SDS011;65216;51.090;-115.352;2023-04-03T08:24:09;1.20;;;0.50;;
76393;SDS011;65216;51.090;-115.352;2023-04-03T08:26:36;1.50;;;0.60;;
76393;SDS011;65216;51.090;-115.352;2023-04-03T08:29:04;0.80;;;0.30;;
76393;SDS011;65216;51.090;-115.352;2023-04-03T08:31:31;0.80;;;0.40;;
76393;SDS011;65216;51.090;-115.352;2023-04-03T08:33:58;1.10;;;0.50;;
76393;SDS011;65216;51.090;-115.352;2023-04-03T08:36:27;1.20;;;0.30;;
76393;SDS011;65216;51.090;-115.352;2023-04-03T08:38:57;1.50;;;0.50;;
76393;SDS011;65216;51.090;-115.352;2023-04-03T08:41:43;0.80;;;0.40;;
76393;SDS011;65216;51.090;-115.352;2023-04-03T08:49:48;1.10;;;0.40;;
76393;SDS011;65216;51.090;-115.352;2023-04-03T08:52:36;0.60;;;0.30;;
76393;SDS011;65216;51.090;-115.352;2023-04-03T08:55:10;0.80;;;0.30;;
76393;SDS011;65216;51.090;-115.352;2023-04-03T08:57:44;0.40;;;0.30;;
76393;SDS011;65216;51.090;-115.352;2023-04-03T09:02:54;1.30;;;0.40;;
76393;SDS011;65216;51.090;-115.352;2023-04-03T09:12:04;1.10;;;0.30;;
76393;SDS011;65216;51.090;-115.352;2023-04-03T09:18:00;1.00;;;0.30;;
76393;SDS011;65216;51.090;-115.352;2023-04-03T09:26:14;1.20;;;0.50;;
76393;SDS011;65216;51.090;-115.352;2023-04-03T09:28:54;0.80;;;0.30;;
76393;SDS011;65216;51.090;-115.352;2023-04-03T09:31:36;0.70;;;0.40;;
76393;SDS011;65216;51.090;-115.352;2023-04-03T09:34:29;2.50;;;0.50;;
76393;SDS011;65216;51.090;-115.352;2023-04-03T09:37:01;0.90;;;0.40;;
76393;SDS011;65216;51.090;-115.352;2023-04-03T09:39:52;0.40;;;0.30;;
76393;SDS011;65216;51.090;-115.352;2023-04-03T09:42:23;1.10;;;0.40;;
76393;SDS011;65216;51.090;-115.352;2023-04-03T09:44:56;1.00;;;0.30;;
76393;SDS011;65216;51.090;-115.352;2023-04-03T09:47:35;0.20;;;0.20;;
76393;SDS011;65216;51.090;-115.352;2023-04-03T09:50:21;0.90;;;0.40;;
76393;SDS011;65216;51.090;-115.352;2023-04-03T09:52:51;0.60;;;0.20;;
76393;SDS011;65216;51.090;-115.352;2023-04-03T09:55:19;0.80;;;0.40;;
76393;SDS011;65216;51.090;-115.352;2023-04-03T09:57:54;0.70;;;0.30;;
76393;SDS011;65216;51.090;-115.352;2023-04-03T10:00:37;0.70;;;0.20;;
76393;SDS011;65216;51.090;-115.352;2023-04-03T10:03:27;0.80;;;0.40;;
76393;SDS011;65216;51.090;-115.352;2023-04-03T10:05:59;0.50;;;0.30;;
76393;SDS011;65216;51.090;-115.352;2023-04-03T10:08:34;0.70;;;0.40;;
76393;SDS011;65216;51.090;-115.352;2023-04-03T10:11:12;1.30;;;0.50;;
76393;SDS011;65216;51.090;-115.352;2023-04-03T10:16:35;1.10;;;0.40;;
76393;SDS011;65216;51.090;-115.352;2023-04-03T10:22:16;0.70;;;0.30;;
76393;SDS011;65216;51.090;-115.352;2023-04-03T10:25:00;1.10;;;0.50;;
76393;SDS011;65216;51.090;-115.352;2023-04-03T10:31:00;0.90;;;0.50;;
76393;SDS011;65216;51.090;-115.352;2023-04-03T10:36:54;1.00;;;0.40;;
76393;SDS011;65216;51.090;-115.352;2023-04-03T10:39:54;1.00;;;0.40;;
76393;SDS011;65216;51.090;-115.352;2023-04-03T10:43:01;0.80;;;0.30;;
76393;SDS011;65216;51.090;-115.352;2023-04-03T10:48:50;0.90;;;0.50;;
76393;SDS011;65216;51.090;-115.352;2023-04-03T10:51:24;0.70;;;0.40;;
76393;SDS011;65216;51.090;-115.352;2023-04-03T10:54:39;0.90;;;0.40;;
76393;SDS011;65216;51.090;-115.352;2023-04-03T10:57:12;1.20;;;0.70;;
76393;SDS011;65216;51.090;-115.352;2023-04-03T10:59:59;0.80;;;0.50;;
76393;SDS011;65216;51.090;-115.352;2023-04-03T11:02:37;1.00;;;0.60;;
76393;SDS011;65216;51.090;-115.352;2023-04-03T11:05:46;0.90;;;0.50;;
76393;SDS011;65216;51.090;-115.352;2023-04-03T11:08:38;1.00;;;0.50;;
76393;SDS011;65216;51.090;-115.352;2023-04-03T11:11:29;0.90;;;0.60;;
76393;SDS011;65216;51.090;-115.352;2023-04-03T11:14:43;1.00;;;0.40;;
76393;SDS011;65216;51.090;-115.352;2023-04-03T11:22:45;1.10;;;0.40;;
76393;SDS011;65216;51.090;-115.352;2023-04-03T11:25:24;0.90;;;0.40;;
76393;SDS011;65216;51.090;-115.352;2023-04-03T11:28:00;1.60;;;0.50;;
76393;SDS011;65216;51.090;-115.352;2023-04-03T11:33:37;1.00;;;0.50;;
76393;SDS011;65216;51.090;-115.352;2023-04-03T11:36:33;1.10;;;0.50;;
76393;SDS011;65216;51.090;-115.352;2023-04-03T11:39:32;0.70;;;0.40;;
76393;SDS011;65216;51.090;-115.352;2023-04-03T11:42:15;1.10;;;0.60;;
76393;SDS011;65216;51.090;-115.352;2023-04-03T11:44:49;0.70;;;0.40;;
76393;SDS011;65216;51.090;-115.352;2023-04-03T11:47:46;1.50;;;0.60;;
76393;SDS011;65216;51.090;-115.352;2023-04-03T11:50:39;1.10;;;0.60;;
76393;SDS011;65216;51.090;-115.352;2023-04-03T11:53:25;1.00;;;0.30;;
76393;SDS011;65216;51.090;-115.352;2023-04-03T11:55:59;0.90;;;0.60;;
76393;SDS011;65216;51.090;-115.352;2023-04-03T12:01:00;1.00;;;0.40;;
76393;SDS011;65216;51.090;-115.352;2023-04-03T12:04:03;1.00;;;0.50;;
76393;SDS011;65216;51.090;-115.352;2023-04-03T12:11:48;0.70;;;0.40;;
76393;SDS011;65216;51.090;-115.352;2023-04-03T12:14:16;1.00;;;0.40;;
76393;SDS011;65216;51.090;-115.352;2023-04-03T12:16:46;0.50;;;0.40;;
76393;SDS011;65216;51.090;-115.352;2023-04-03T12:19:37;1.10;;;0.40;;
76393;SDS011;65216;51.090;-115.352;2023-04-03T12:22:16;1.10;;;0.50;;
76393;SDS011;65216;51.090;-115.352;2023-04-03T12:24:51;0.60;;;0.40;;
76393;SDS011;65216;51.090;-115.352;2023-04-03T12:30:30;1.00;;;0.40;;
76393;SDS011;65216;51.090;-115.352;2023-04-03T12:36:08;0.50;;;0.30;;
76393;SDS011;65216;51.090;-115.352;2023-04-03T12:47:50;0.40;;;0.30;;
76393;SDS011;65216;51.090;-115.352;2023-04-03T12:50:33;0.60;;;0.30;;
76393;SDS011;65216;51.090;-115.352;2023-04-03T12:55:32;1.10;;;0.50;;
76393;SDS011;65216;51.090;-115.352;2023-04-03T12:58:17;1.10;;;0.50;;
76393;SDS011;65216;51.090;-115.352;2023-04-03T13:01:01;1.00;;;0.40;;
76393;SDS011;65216;51.090;-115.352;2023-04-03T13:03:30;0.50;;;0.30;;
76393;SDS011;65216;51.090;-115.352;2023-04-03T13:06:01;0.80;;;0.50;;
76393;SDS011;65216;51.090;-115.352;2023-04-03T13:08:30;1.60;;;0.50;;
76393;SDS011;65216;51.090;-115.352;2023-04-03T13:11:11;2.20;;;0.50;;
76393;SDS011;65216;51.090;-115.352;2023-04-03T13:13:38;2.30;;;0.60;;
76393;SDS011;65216;51.090;-115.352;2023-04-03T13:16:19;3.90;;;0.70;;
76393;SDS011;65216;51.090;-115.352;2023-04-03T13:18:51;3.40;;;0.70;;
76393;SDS011;65216;51.090;-115.352;2023-04-03T13:21:26;2.00;;;0.70;;
76393;SDS011;65216;51.090;-115.352;2023-04-03T13:23:58;5.20;;;0.70;;
76393;SDS011;65216;51.090;-115.352;2023-04-03T13:26:30;1.50;;;0.60;;
76393;SDS011;65216;51.090;-115.352;2023-04-03T13:29:14;5.80;;;0.90;;
76393;SDS011;65216;51.090;-115.352;2023-04-03T13:31:47;5.70;;;0.90;;
76393;SDS011;65216;51.090;-115.352;2023-04-03T13:34:24;4.40;;;0.80;;
76393;SDS011;65216;51.090;-115.352;2023-04-03T13:37:00;2.30;;;0.70;;
76393;SDS011;65216;51.090;-115.352;2023-04-03T13:39:32;3.70;;;0.60;;
76393;SDS011;65216;51.090;-115.352;2023-04-03T13:42:22;5.60;;;0.80;;
76393;SDS011;65216;51.090;-115.352;2023-04-03T13:48:19;3.30;;;0.60;;
76393;SDS011;65216;51.090;-115.352;2023-04-03T13:53:25;2.10;;;0.70;;
76393;SDS011;65216;51.090;-115.352;2023-04-03T13:58:33;3.30;;;0.80;;
76393;SDS011;65216;51.090;-115.352;2023-04-03T14:01:14;4.30;;;0.70;;
76393;SDS011;65216;51.090;-115.352;2023-04-03T14:03:56;3.90;;;0.50;;
76393;SDS011;65216;51.090;-115.352;2023-04-03T14:06:26;3.50;;;0.70;;
76393;SDS011;65216;51.090;-115.352;2023-04-03T14:08:56;2.70;;;0.80;;
76393;SDS011;65216;51.090;-115.352;2023-04-03T14:11:29;2.80;;;0.80;;
76393;SDS011;65216;51.090;-115.352;2023-04-03T14:14:05;6.60;;;0.80;;
76393;SDS011;65216;51.090;-115.352;2023-04-03T14:16:40;1.60;;;0.60;;
76393;SDS011;65216;51.090;-115.352;2023-04-03T14:19:39;4.70;;;0.60;;
76393;SDS011;65216;51.090;-115.352;2023-04-03T14:25:03;1.80;;;0.50;;
76393;SDS011;65216;51.090;-115.352;2023-04-03T14:27:37;4.10;;;0.70;;
76393;SDS011;65216;51.090;-115.352;2023-04-03T14:30:12;3.10;;;1.00;;
76393;SDS011;65216;51.090;-115.352;2023-04-03T14:32:47;2.10;;;0.70;;
76393;SDS011;65216;51.090;-115.352;2023-04-03T14:35:16;3.70;;;0.60;;
76393;SDS011;65216;51.090;-115.352;2023-04-03T14:37:45;2.50;;;0.50;;
76393;SDS011;65216;51.090;-115.352;2023-04-03T14:40:19;4.90;;;0.80;;
76393;SDS011;65216;51.090;-115.352;2023-04-03T14:42:52;2.10;;;0.70;;
76393;SDS011;65216;51.090;-115.352;2023-04-03T14:45:21;1.90;;;0.60;;
76393;SDS011;65216;51.090;-115.352;2023-04-03T14:47:51;3.50;;;0.50;;
76393;SDS011;65216;51.090;-115.352;2023-04-03T14:50:25;2.20;;;0.60;;
76393;SDS011;65216;51.090;-115.352;2023-04-03T14:52:56;3.60;;;0.70;;
76393;SDS011;65216;51.090;-115.352;2023-04-03T14:55:27;2.50;;;0.60;;
76393;SDS011;65216;51.090;-115.352;2023-04-03T14:57:55;2.00;;;0.70;;
76393;SDS011;65216;51.090;-115.352;2023-04-03T15:00:22;2.10;;;0.60;;
76393;SDS011;65216;51.090;-115.352;2023-04-03T15:02:50;1.70;;;0.50;;
76393;SDS011;65216;51.090;-115.352;2023-04-03T15:05:18;3.00;;;0.50;;
76393;SDS011;65216;51.090;-115.352;2023-04-03T15:07:54;2.80;;;0.60;;
76393;SDS011;65216;51.090;-115.352;2023-04-03T15:10:25;3.00;;;0.90;;
76393;SDS011;65216;51.090;-115.352;2023-04-03T15:12:54;3.60;;;0.80;;
76393;SDS011;65216;51.090;-115.352;2023-04-03T15:15:27;2.30;;;0.60;;
76393;SDS011;65216;51.090;-115.352;2023-04-03T15:17:58;2.60;;;0.70;;
76393;SDS011;65216;51.090;-115.352;2023-04-03T15:20:31;2.60;;;0.70;;
76393;SDS011;65216;51.090;-115.352;2023-04-03T15:23:00;4.00;;;0.60;;
76393;SDS011;65216;51.090;-115.352;2023-04-03T15:25:32;4.30;;;0.90;;
76393;SDS011;65216;51.090;-115.352;2023-04-03T15:28:00;2.90;;;0.70;;
76393;SDS011;65216;51.090;-115.352;2023-04-03T15:30:27;5.10;;;0.80;;
76393;SDS011;65216;51.090;-115.352;2023-04-03T15:32:54;5.10;;;0.90;;
76393;SDS011;65216;51.090;-115.352;2023-04-03T15:35:22;7.00;;;1.00;;
76393;SDS011;65216;51.090;-115.352;2023-04-03T15:37:49;5.10;;;1.00;;
76393;SDS011;65216;51.090;-115.352;2023-04-03T15:40:17;7.10;;;0.80;;
76393;SDS011;65216;51.090;-115.352;2023-04-03T15:42:47;8.90;;;0.80;;
76393;SDS011;65216;51.090;-115.352;2023-04-03T15:45:17;8.80;;;1.00;;
76393;SDS011;65216;51.090;-115.352;2023-04-03T15:47:44;6.40;;;1.00;;
76393;SDS011;65216;51.090;-115.352;2023-04-03T15:50:11;3.20;;;0.90;;
76393;SDS011;65216;51.090;-115.352;2023-04-03T15:52:41;9.20;;;0.90;;
76393;SDS011;65216;51.090;-115.352;2023-04-03T15:55:09;6.70;;;0.90;;
76393;SDS011;65216;51.090;-115.352;2023-04-03T15:57:36;6.30;;;0.90;;
76393;SDS011;65216;51.090;-115.352;2023-04-03T16:00:04;9.20;;;1.00;;
76393;SDS011;65216;51.090;-115.352;2023-04-03T16:02:32;4.30;;;0.80;;
76393;SDS011;65216;51.090;-115.352;2023-04-03T16:05:00;8.30;;;1.00;;
76393;SDS011;65216;51.090;-115.352;2023-04-03T16:07:27;8.00;;;1.00;;
76393;SDS011;65216;51.090;-115.352;2023-04-03T16:09:57;5.20;;;0.80;;